Airfield :







YOU CAN JOIN US ON...

 
LOGIN :

Register | Disclaimer

   EN    FR    IT 

 









Legend :    VFR   Marginal VFR   IFR   Intensive IFR   Very Intensive IFR
Visi :
Ceiling :
>= 8 km
>= 3000ft
5 to 8 km
1000 to 3000 ft
1500m to 5 km
500 to 1000 ft
800 to 1500m
200 to 500 ft
< 800m
< 200 ft
Symbols :   Thunderstorms  Fog  Heavy snow  Heavy precipitations  Wind > 20 kt







- Airport Elevation : 461 ft
- IATA code : YYT


CYYT - St John's Int

CURRENT METAR :
  • 230539Z 06005KT 6SM -RA BR FEW003 OVC017 06/06 A3017 RMK SF2SC6 SLP222

EXPIRED METARs :
  • 230526Z VRB02KT 2SM R29/5000VP6000FT/D -RA BR SCT003 OVC016 06/06 A3017 RMK FG2SF2SC4 VIS HIER E-SE SLP221
  • 230504Z 33004KT 1/2SM R29/5500VP6000FT/D R16/2800FT/N -RA FG OVC003 06/06 A3017 RMK FG6SF2 VIS HIER E SLP222
  • 230432Z 27004KT 1SM R29/4000FT/N R16/4000FT/N -RA BR BKN003 OVC018 06/06 A3015 RMK FG6SF1SC1 VIS HIER E SLP216
  • 230400Z 27006KT 3/4SM R29/3000FT/N R16/2800FT/N -RA BR BKN003 OVC016 06/06 A3015 RMK FG6ST1SC1 SLP216
  • 230346Z 28008KT 3/4SM R29/3500FT/D R16/2600V4000FT/D -RA BR OVC014 06/06 A3015 RMK FG7SC1 SLP216
  • 230326Z 28006KT 1SM R29/5500VP6000FT/D R16/4500FT/D -RA BR OVC015 06/06 A3015 RMK FG7SC1 VIS HIER E SLP215
  • 230300Z 26009KT 1 1/2SM R29/5000VP6000FT/U -RA BR BKN003 OVC013 06/06 A3014 RMK FG4SF2SC2 VIS HIER E-SE SLP213
  • 230243Z 28009KT 1SM R29/3000V5000FT/U R16/3500FT/N -RA BR VV003 06/06 A3015 RMK FG8 SLP213

TAF TAF CYYT
Valid from the 23 at 06:00 until the 24 at 06:00 UTC


230538Z 2306/2406 33005KT 6SM -RA BR SCT003 OVC015
TEMPO 2306/2308 3/4SM -DZ BR BKN003 OVC015
FM230800 35006KT P6SM SCT015 OVC025
TEMPO 2308/2312 5SM -SHRA BR OVC015
FM231200 05010KT P6SM SCT004 BKN120
FM231500 08012KT P6SM FEW020 BKN120
FM240200 10012KT P6SM OVC060
BECMG 2404/2406 10012G22KT RMK NXT FCST BY 231200Z
CZQX FIR / North America



MET'MAP, your aeronautical weather chart ! - Copyright ORBIFLY December 2007 - Disclaimer

ORBIFLY MET'MAP TEAM :

Programming & Development : Alexandra Zaïnal
Concept & Development : Baudouin d'Aumeries
Co-Development & Prog : Marc-Olivier Méhu
Technical & hardware support : Manuel Goepfert

Contact : metmap@orbifly.com




SOURCES & CREDITS :

   NOAA